sensor_id;sensor_type;location;lat;lon;timestamp;P1;durP1;ratioP1;P2;durP2;ratioP2
28437;SDS011;15667;52.376;9.708;2023-02-28T00:01:13;9.00;;;4.30;;
28437;SDS011;15667;52.376;9.708;2023-02-28T00:03:40;8.52;;;4.30;;
28437;SDS011;15667;52.376;9.708;2023-02-28T00:06:06;7.80;;;3.92;;
28437;SDS011;15667;52.376;9.708;2023-02-28T00:08:34;8.57;;;4.00;;
28437;SDS011;15667;52.376;9.708;2023-02-28T00:11:04;6.80;;;4.15;;
28437;SDS011;15667;52.376;9.708;2023-02-28T00:13:32;9.18;;;4.22;;
28437;SDS011;15667;52.376;9.708;2023-02-28T00:16:06;5.65;;;4.00;;
28437;SDS011;15667;52.376;9.708;2023-02-28T00:18:43;8.93;;;4.38;;
28437;SDS011;15667;52.376;9.708;2023-02-28T00:25:09;7.60;;;3.88;;
28437;SDS011;15667;52.376;9.708;2023-02-28T00:27:37;12.20;;;4.22;;
28437;SDS011;15667;52.376;9.708;2023-02-28T00:30:04;7.95;;;4.03;;
28437;SDS011;15667;52.376;9.708;2023-02-28T00:32:32;11.60;;;3.97;;
28437;SDS011;15667;52.376;9.708;2023-02-28T00:34:59;8.25;;;4.10;;
28437;SDS011;15667;52.376;9.708;2023-02-28T00:37:25;7.55;;;3.63;;
28437;SDS011;15667;52.376;9.708;2023-02-28T00:39:50;10.55;;;4.25;;
28437;SDS011;15667;52.376;9.708;2023-02-28T00:42:16;10.07;;;3.95;;
28437;SDS011;15667;52.376;9.708;2023-02-28T00:44:42;5.93;;;3.65;;
28437;SDS011;15667;52.376;9.708;2023-02-28T00:47:07;8.48;;;4.00;;
28437;SDS011;15667;52.376;9.708;2023-02-28T00:49:33;9.93;;;3.83;;
28437;SDS011;15667;52.376;9.708;2023-02-28T00:51:59;10.43;;;4.22;;
28437;SDS011;15667;52.376;9.708;2023-02-28T00:54:24;8.20;;;4.25;;
28437;SDS011;15667;52.376;9.708;2023-02-28T00:56:50;7.25;;;4.00;;
28437;SDS011;15667;52.376;9.708;2023-02-28T00:59:16;10.45;;;4.65;;
28437;SDS011;15667;52.376;9.708;2023-02-28T01:01:43;8.93;;;4.40;;
28437;SDS011;15667;52.376;9.708;2023-02-28T01:04:09;10.23;;;4.72;;
28437;SDS011;15667;52.376;9.708;2023-02-28T01:06:38;9.38;;;4.35;;
28437;SDS011;15667;52.376;9.708;2023-02-28T01:09:05;8.68;;;4.35;;
28437;SDS011;15667;52.376;9.708;2023-02-28T01:11:32;10.32;;;4.95;;
28437;SDS011;15667;52.376;9.708;2023-02-28T01:13:58;12.23;;;5.80;;
28437;SDS011;15667;52.376;9.708;2023-02-28T01:16:24;10.88;;;4.95;;
28437;SDS011;15667;52.376;9.708;2023-02-28T01:18:49;10.02;;;4.85;;
28437;SDS011;15667;52.376;9.708;2023-02-28T01:21:16;12.57;;;5.13;;
28437;SDS011;15667;52.376;9.708;2023-02-28T01:23:43;9.98;;;4.57;;
28437;SDS011;15667;52.376;9.708;2023-02-28T01:26:13;10.43;;;4.90;;
28437;SDS011;15667;52.376;9.708;2023-02-28T01:28:41;8.45;;;4.90;;
28437;SDS011;15667;52.376;9.708;2023-02-28T01:31:07;14.23;;;4.70;;
28437;SDS011;15667;52.376;9.708;2023-02-28T01:33:33;10.18;;;4.57;;
28437;SDS011;15667;52.376;9.708;2023-02-28T01:35:59;11.13;;;4.85;;
28437;SDS011;15667;52.376;9.708;2023-02-28T01:38:30;11.40;;;5.25;;
28437;SDS011;15667;52.376;9.708;2023-02-28T01:40:57;9.05;;;5.18;;
28437;SDS011;15667;52.376;9.708;2023-02-28T01:43:26;10.57;;;5.07;;
28437;SDS011;15667;52.376;9.708;2023-02-28T01:46:13;11.27;;;5.35;;
28437;SDS011;15667;52.376;9.708;2023-02-28T01:51:35;9.07;;;5.00;;
28437;SDS011;15667;52.376;9.708;2023-02-28T01:54:02;10.48;;;5.60;;
28437;SDS011;15667;52.376;9.708;2023-02-28T01:56:38;9.70;;;5.25;;
28437;SDS011;15667;52.376;9.708;2023-02-28T01:59:08;11.13;;;5.38;;
28437;SDS011;15667;52.376;9.708;2023-02-28T02:01:35;13.25;;;5.97;;
28437;SDS011;15667;52.376;9.708;2023-02-28T02:04:01;9.68;;;5.25;;
28437;SDS011;15667;52.376;9.708;2023-02-28T02:06:29;12.20;;;5.95;;
28437;SDS011;15667;52.376;9.708;2023-02-28T02:09:00;10.05;;;5.53;;
28437;SDS011;15667;52.376;9.708;2023-02-28T02:11:26;14.07;;;5.75;;
28437;SDS011;15667;52.376;9.708;2023-02-28T02:16:28;12.80;;;5.53;;
28437;SDS011;15667;52.376;9.708;2023-02-28T02:19:14;10.80;;;5.60;;
28437;SDS011;15667;52.376;9.708;2023-02-28T02:24:49;12.57;;;5.43;;
28437;SDS011;15667;52.376;9.708;2023-02-28T02:41:25;17.35;;;6.50;;
28437;SDS011;15667;52.376;9.708;2023-02-28T02:46:47;12.85;;;7.13;;
28437;SDS011;15667;52.376;9.708;2023-02-28T02:49:21;16.08;;;8.38;;
28437;SDS011;15667;52.376;9.708;2023-02-28T02:51:56;13.88;;;7.20;;
28437;SDS011;15667;52.376;9.708;2023-02-28T02:54:30;13.80;;;7.35;;
28437;SDS011;15667;52.376;9.708;2023-02-28T02:57:03;16.38;;;7.90;;
28437;SDS011;15667;52.376;9.708;2023-02-28T02:59:33;15.77;;;7.55;;
28437;SDS011;15667;52.376;9.708;2023-02-28T03:02:03;16.63;;;7.95;;
28437;SDS011;15667;52.376;9.708;2023-02-28T03:04:32;16.13;;;7.78;;
28437;SDS011;15667;52.376;9.708;2023-02-28T03:07:03;17.02;;;7.90;;
28437;SDS011;15667;52.376;9.708;2023-02-28T03:09:28;15.60;;;7.88;;
28437;SDS011;15667;52.376;9.708;2023-02-28T03:11:58;17.73;;;8.30;;
28437;SDS011;15667;52.376;9.708;2023-02-28T03:25:20;14.80;;;7.65;;
28437;SDS011;15667;52.376;9.708;2023-02-28T03:36:35;17.80;;;8.95;;
28437;SDS011;15667;52.376;9.708;2023-02-28T03:38:50;19.30;;;8.63;;
28437;SDS011;15667;52.376;9.708;2023-02-28T03:41:38;19.05;;;7.93;;
28437;SDS011;15667;52.376;9.708;2023-02-28T03:44:18;15.70;;;8.07;;
28437;SDS011;15667;52.376;9.708;2023-02-28T03:46:54;16.27;;;7.07;;
28437;SDS011;15667;52.376;9.708;2023-02-28T03:49:27;18.00;;;8.23;;
28437;SDS011;15667;52.376;9.708;2023-02-28T03:52:01;15.57;;;7.35;;
28437;SDS011;15667;52.376;9.708;2023-02-28T03:54:32;17.13;;;7.60;;
28437;SDS011;15667;52.376;9.708;2023-02-28T03:57:05;14.60;;;7.30;;
28437;SDS011;15667;52.376;9.708;2023-02-28T04:02:12;15.90;;;7.45;;
28437;SDS011;15667;52.376;9.708;2023-02-28T04:05:13;12.90;;;7.68;;
28437;SDS011;15667;52.376;9.708;2023-02-28T04:08:25;16.33;;;7.43;;
28437;SDS011;15667;52.376;9.708;2023-02-28T04:10:57;14.38;;;7.38;;
28437;SDS011;15667;52.376;9.708;2023-02-28T04:13:28;12.13;;;6.25;;
28437;SDS011;15667;52.376;9.708;2023-02-28T04:15:53;20.10;;;7.80;;
28437;SDS011;15667;52.376;9.708;2023-02-28T04:18:22;14.15;;;7.30;;
28437;SDS011;15667;52.376;9.708;2023-02-28T04:20:48;14.60;;;7.13;;
28437;SDS011;15667;52.376;9.708;2023-02-28T04:23:13;15.32;;;7.65;;
28437;SDS011;15667;52.376;9.708;2023-02-28T04:25:39;14.90;;;7.65;;
28437;SDS011;15667;52.376;9.708;2023-02-28T04:28:08;14.02;;;7.15;;
28437;SDS011;15667;52.376;9.708;2023-02-28T04:30:34;15.70;;;6.93;;
28437;SDS011;15667;52.376;9.708;2023-02-28T04:33:00;20.23;;;7.00;;
28437;SDS011;15667;52.376;9.708;2023-02-28T04:35:29;16.83;;;7.80;;
28437;SDS011;15667;52.376;9.708;2023-02-28T04:37:55;12.50;;;7.05;;
28437;SDS011;15667;52.376;9.708;2023-02-28T04:40:20;15.00;;;7.78;;
28437;SDS011;15667;52.376;9.708;2023-02-28T04:42:46;16.67;;;8.10;;
28437;SDS011;15667;52.376;9.708;2023-02-28T04:45:11;14.90;;;7.85;;
28437;SDS011;15667;52.376;9.708;2023-02-28T04:47:37;15.38;;;7.68;;
28437;SDS011;15667;52.376;9.708;2023-02-28T04:50:03;15.75;;;7.55;;
28437;SDS011;15667;52.376;9.708;2023-02-28T04:52:29;15.77;;;7.72;;
28437;SDS011;15667;52.376;9.708;2023-02-28T04:54:55;16.20;;;7.50;;
28437;SDS011;15667;52.376;9.708;2023-02-28T04:57:20;17.25;;;7.35;;
28437;SDS011;15667;52.376;9.708;2023-02-28T04:59:46;13.77;;;7.70;;
28437;SDS011;15667;52.376;9.708;2023-02-28T05:02:12;16.27;;;7.47;;
28437;SDS011;15667;52.376;9.708;2023-02-28T05:04:38;13.73;;;7.10;;
28437;SDS011;15667;52.376;9.708;2023-02-28T05:07:03;17.80;;;7.43;;
28437;SDS011;15667;52.376;9.708;2023-02-28T05:09:29;16.45;;;7.43;;
28437;SDS011;15667;52.376;9.708;2023-02-28T05:11:55;17.95;;;7.82;;
28437;SDS011;15667;52.376;9.708;2023-02-28T05:14:21;16.08;;;7.88;;
28437;SDS011;15667;52.376;9.708;2023-02-28T05:16:46;16.50;;;7.45;;
28437;SDS011;15667;52.376;9.708;2023-02-28T05:19:12;17.20;;;7.68;;
28437;SDS011;15667;52.376;9.708;2023-02-28T05:21:41;16.05;;;8.02;;
28437;SDS011;15667;52.376;9.708;2023-02-28T05:24:17;20.27;;;8.15;;
28437;SDS011;15667;52.376;9.708;2023-02-28T05:26:48;18.10;;;7.90;;
28437;SDS011;15667;52.376;9.708;2023-02-28T05:29:16;19.27;;;7.80;;
28437;SDS011;15667;52.376;9.708;2023-02-28T05:31:42;20.02;;;7.75;;
28437;SDS011;15667;52.376;9.708;2023-02-28T05:34:07;47.50;;;17.48;;
28437;SDS011;15667;52.376;9.708;2023-02-28T05:36:36;133.00;;;45.00;;
28437;SDS011;15667;52.376;9.708;2023-02-28T05:39:02;24.75;;;12.50;;
28437;SDS011;15667;52.376;9.708;2023-02-28T05:41:28;16.00;;;7.70;;
28437;SDS011;15667;52.376;9.708;2023-02-28T05:43:54;16.95;;;7.80;;
28437;SDS011;15667;52.376;9.708;2023-02-28T05:46:19;13.02;;;6.70;;
28437;SDS011;15667;52.376;9.708;2023-02-28T05:48:46;14.73;;;7.13;;
28437;SDS011;15667;52.376;9.708;2023-02-28T05:51:20;14.15;;;6.68;;
28437;SDS011;15667;52.376;9.708;2023-02-28T05:53:46;18.45;;;6.63;;
28437;SDS011;15667;52.376;9.708;2023-02-28T05:56:13;16.30;;;6.70;;
28437;SDS011;15667;52.376;9.708;2023-02-28T05:58:38;14.05;;;6.68;;
28437;SDS011;15667;52.376;9.708;2023-02-28T06:01:24;14.55;;;7.07;;
28437;SDS011;15667;52.376;9.708;2023-02-28T06:03:55;15.75;;;7.00;;
28437;SDS011;15667;52.376;9.708;2023-02-28T06:06:21;12.30;;;6.65;;
28437;SDS011;15667;52.376;9.708;2023-02-28T06:08:53;15.13;;;7.80;;
28437;SDS011;15667;52.376;9.708;2023-02-28T06:11:21;15.23;;;6.90;;
28437;SDS011;15667;52.376;9.708;2023-02-28T06:13:52;13.63;;;6.82;;
28437;SDS011;15667;52.376;9.708;2023-02-28T06:16:21;15.15;;;7.03;;
28437;SDS011;15667;52.376;9.708;2023-02-28T06:18:48;18.20;;;7.25;;
28437;SDS011;15667;52.376;9.708;2023-02-28T06:21:13;12.30;;;6.72;;
28437;SDS011;15667;52.376;9.708;2023-02-28T06:23:39;12.95;;;7.07;;
28437;SDS011;15667;52.376;9.708;2023-02-28T06:26:05;16.40;;;7.25;;
28437;SDS011;15667;52.376;9.708;2023-02-28T06:28:31;15.00;;;6.80;;
28437;SDS011;15667;52.376;9.708;2023-02-28T06:30:57;13.02;;;7.30;;
28437;SDS011;15667;52.376;9.708;2023-02-28T06:33:23;16.55;;;7.07;;
28437;SDS011;15667;52.376;9.708;2023-02-28T06:35:53;17.02;;;7.25;;
28437;SDS011;15667;52.376;9.708;2023-02-28T06:38:22;13.43;;;7.00;;
28437;SDS011;15667;52.376;9.708;2023-02-28T06:41:19;16.63;;;7.93;;
28437;SDS011;15667;52.376;9.708;2023-02-28T06:44:13;15.60;;;7.20;;
28437;SDS011;15667;52.376;9.708;2023-02-28T06:46:41;21.42;;;7.65;;
28437;SDS011;15667;52.376;9.708;2023-02-28T06:49:13;22.15;;;8.15;;
28437;SDS011;15667;52.376;9.708;2023-02-28T06:51:40;18.13;;;8.25;;
28437;SDS011;15667;52.376;9.708;2023-02-28T06:54:10;14.52;;;7.32;;
28437;SDS011;15667;52.376;9.708;2023-02-28T06:56:36;16.48;;;7.97;;
28437;SDS011;15667;52.376;9.708;2023-02-28T06:59:12;19.23;;;8.18;;
28437;SDS011;15667;52.376;9.708;2023-02-28T07:01:38;16.42;;;7.78;;
28437;SDS011;15667;52.376;9.708;2023-02-28T07:04:05;18.83;;;8.50;;
28437;SDS011;15667;52.376;9.708;2023-02-28T07:06:31;17.40;;;8.85;;
28437;SDS011;15667;52.376;9.708;2023-02-28T07:08:57;20.55;;;9.57;;
28437;SDS011;15667;52.376;9.708;2023-02-28T07:11:23;21.77;;;8.55;;
28437;SDS011;15667;52.376;9.708;2023-02-28T07:13:51;18.83;;;8.40;;
28437;SDS011;15667;52.376;9.708;2023-02-28T07:16:20;19.27;;;8.88;;
28437;SDS011;15667;52.376;9.708;2023-02-28T07:18:47;20.83;;;8.90;;
28437;SDS011;15667;52.376;9.708;2023-02-28T07:21:13;20.23;;;9.00;;
28437;SDS011;15667;52.376;9.708;2023-02-28T07:23:39;17.30;;;8.85;;
28437;SDS011;15667;52.376;9.708;2023-02-28T07:26:07;20.65;;;8.88;;
28437;SDS011;15667;52.376;9.708;2023-02-28T07:28:37;19.20;;;8.70;;
28437;SDS011;15667;52.376;9.708;2023-02-28T07:31:07;17.67;;;8.15;;
28437;SDS011;15667;52.376;9.708;2023-02-28T07:33:34;20.83;;;8.45;;
28437;SDS011;15667;52.376;9.708;2023-02-28T07:36:00;19.88;;;8.10;;
28437;SDS011;15667;52.376;9.708;2023-02-28T07:38:33;16.25;;;7.78;;
28437;SDS011;15667;52.376;9.708;2023-02-28T07:40:59;20.58;;;7.10;;
28437;SDS011;15667;52.376;9.708;2023-02-28T07:43:25;14.70;;;6.95;;
28437;SDS011;15667;52.376;9.708;2023-02-28T07:45:50;15.07;;;6.10;;
28437;SDS011;15667;52.376;9.708;2023-02-28T07:48:16;17.85;;;6.45;;
28437;SDS011;15667;52.376;9.708;2023-02-28T07:50:45;14.40;;;6.53;;
28437;SDS011;15667;52.376;9.708;2023-02-28T07:53:20;13.52;;;5.88;;
28437;SDS011;15667;52.376;9.708;2023-02-28T07:55:46;15.35;;;6.28;;
28437;SDS011;15667;52.376;9.708;2023-02-28T07:58:11;18.00;;;6.13;;
28437;SDS011;15667;52.376;9.708;2023-02-28T08:00:37;17.77;;;6.15;;
28437;SDS011;15667;52.376;9.708;2023-02-28T08:03:03;12.88;;;5.72;;
28437;SDS011;15667;52.376;9.708;2023-02-28T08:05:28;17.83;;;5.95;;
28437;SDS011;15667;52.376;9.708;2023-02-28T08:07:56;14.00;;;5.35;;
28437;SDS011;15667;52.376;9.708;2023-02-28T08:10:22;18.00;;;5.18;;
28437;SDS011;15667;52.376;9.708;2023-02-28T08:12:48;13.02;;;5.55;;
28437;SDS011;15667;52.376;9.708;2023-02-28T08:15:14;10.52;;;4.72;;
28437;SDS011;15667;52.376;9.708;2023-02-28T08:17:40;9.63;;;5.15;;
28437;SDS011;15667;52.376;9.708;2023-02-28T08:20:06;10.98;;;4.63;;
28437;SDS011;15667;52.376;9.708;2023-02-28T08:22:32;12.45;;;5.13;;
28437;SDS011;15667;52.376;9.708;2023-02-28T08:24:58;11.95;;;4.85;;
28437;SDS011;15667;52.376;9.708;2023-02-28T08:27:23;10.23;;;4.95;;
28437;SDS011;15667;52.376;9.708;2023-02-28T08:29:49;9.63;;;4.65;;
28437;SDS011;15667;52.376;9.708;2023-02-28T08:32:14;9.10;;;4.30;;
28437;SDS011;15667;52.376;9.708;2023-02-28T08:34:41;10.65;;;4.30;;
28437;SDS011;15667;52.376;9.708;2023-02-28T08:37:07;9.30;;;4.43;;
28437;SDS011;15667;52.376;9.708;2023-02-28T08:39:36;8.55;;;4.40;;
28437;SDS011;15667;52.376;9.708;2023-02-28T08:42:02;8.80;;;4.00;;
28437;SDS011;15667;52.376;9.708;2023-02-28T08:44:29;8.90;;;3.90;;
28437;SDS011;15667;52.376;9.708;2023-02-28T08:46:54;13.50;;;3.97;;
28437;SDS011;15667;52.376;9.708;2023-02-28T08:49:20;9.82;;;3.83;;
28437;SDS011;15667;52.376;9.708;2023-02-28T08:51:45;8.07;;;3.53;;
28437;SDS011;15667;52.376;9.708;2023-02-28T08:54:11;8.45;;;3.85;;
28437;SDS011;15667;52.376;9.708;2023-02-28T08:56:44;9.20;;;3.58;;
28437;SDS011;15667;52.376;9.708;2023-02-28T08:59:11;4.38;;;2.97;;
28437;SDS011;15667;52.376;9.708;2023-02-28T09:01:37;8.10;;;3.30;;
28437;SDS011;15667;52.376;9.708;2023-02-28T09:04:03;6.07;;;3.40;;
28437;SDS011;15667;52.376;9.708;2023-02-28T09:06:29;6.57;;;2.97;;
28437;SDS011;15667;52.376;9.708;2023-02-28T09:08:58;5.88;;;2.67;;
28437;SDS011;15667;52.376;9.708;2023-02-28T09:11:24;8.93;;;3.08;;
28437;SDS011;15667;52.376;9.708;2023-02-28T09:13:51;6.70;;;2.50;;
28437;SDS011;15667;52.376;9.708;2023-02-28T09:16:17;5.18;;;2.70;;
28437;SDS011;15667;52.376;9.708;2023-02-28T09:18:43;8.25;;;2.42;;
28437;SDS011;15667;52.376;9.708;2023-02-28T09:21:10;3.15;;;2.03;;
28437;SDS011;15667;52.376;9.708;2023-02-28T09:23:39;4.93;;;2.35;;
28437;SDS011;15667;52.376;9.708;2023-02-28T09:26:05;6.75;;;2.03;;
28437;SDS011;15667;52.376;9.708;2023-02-28T09:28:32;11.85;;;2.63;;
28437;SDS011;15667;52.376;9.708;2023-02-28T09:30:57;5.97;;;2.08;;
28437;SDS011;15667;52.376;9.708;2023-02-28T09:33:24;5.30;;;2.28;;
28437;SDS011;15667;52.376;9.708;2023-02-28T09:35:51;4.03;;;2.35;;
28437;SDS011;15667;52.376;9.708;2023-02-28T09:38:22;4.15;;;2.15;;
28437;SDS011;15667;52.376;9.708;2023-02-28T09:43:20;5.85;;;2.15;;
28437;SDS011;15667;52.376;9.708;2023-02-28T09:46:35;2.22;;;1.50;;
28437;SDS011;15667;52.376;9.708;2023-02-28T09:48:41;5.72;;;1.80;;
28437;SDS011;15667;52.376;9.708;2023-02-28T09:53:53;4.40;;;1.58;;
28437;SDS011;15667;52.376;9.708;2023-02-28T09:56:24;3.72;;;1.63;;
28437;SDS011;15667;52.376;9.708;2023-02-28T10:04:11;5.35;;;1.67;;
28437;SDS011;15667;52.376;9.708;2023-02-28T10:06:44;4.70;;;1.60;;
28437;SDS011;15667;52.376;9.708;2023-02-28T10:09:18;7.13;;;1.40;;
28437;SDS011;15667;52.376;9.708;2023-02-28T10:11:52;8.13;;;0.95;;
28437;SDS011;15667;52.376;9.708;2023-02-28T10:14:22;3.42;;;1.55;;
28437;SDS011;15667;52.376;9.708;2023-02-28T10:17:01;2.45;;;1.20;;
28437;SDS011;15667;52.376;9.708;2023-02-28T10:22:29;5.40;;;1.67;;
28437;SDS011;15667;52.376;9.708;2023-02-28T10:25:01;3.67;;;1.27;;
28437;SDS011;15667;52.376;9.708;2023-02-28T10:27:31;2.10;;;1.40;;
28437;SDS011;15667;52.376;9.708;2023-02-28T10:29:58;3.80;;;1.90;;
28437;SDS011;15667;52.376;9.708;2023-02-28T10:32:35;4.22;;;1.65;;
28437;SDS011;15667;52.376;9.708;2023-02-28T10:37:37;4.18;;;1.73;;
28437;SDS011;15667;52.376;9.708;2023-02-28T10:40:05;7.38;;;1.80;;
28437;SDS011;15667;52.376;9.708;2023-02-28T10:42:33;4.05;;;1.55;;
28437;SDS011;15667;52.376;9.708;2023-02-28T10:45:10;1.85;;;1.52;;
28437;SDS011;15667;52.376;9.708;2023-02-28T10:50:32;3.58;;;1.35;;
28437;SDS011;15667;52.376;9.708;2023-02-28T10:53:45;2.55;;;1.60;;
28437;SDS011;15667;52.376;9.708;2023-02-28T10:55:59;3.08;;;1.80;;
28437;SDS011;15667;52.376;9.708;2023-02-28T11:01:35;3.20;;;1.70;;
28437;SDS011;15667;52.376;9.708;2023-02-28T11:07:19;2.88;;;1.45;;
28437;SDS011;15667;52.376;9.708;2023-02-28T11:09:48;2.65;;;1.33;;
28437;SDS011;15667;52.376;9.708;2023-02-28T11:15:04;5.43;;;2.00;;
28437;SDS011;15667;52.376;9.708;2023-02-28T11:17:43;3.22;;;1.45;;
28437;SDS011;15667;52.376;9.708;2023-02-28T11:20:10;2.80;;;1.55;;
28437;SDS011;15667;52.376;9.708;2023-02-28T11:22:45;3.83;;;1.50;;
28437;SDS011;15667;52.376;9.708;2023-02-28T11:25:32;3.85;;;1.60;;
28437;SDS011;15667;52.376;9.708;2023-02-28T11:28:01;3.45;;;1.70;;
28437;SDS011;15667;52.376;9.708;2023-02-28T11:30:35;2.63;;;1.30;;
28437;SDS011;15667;52.376;9.708;2023-02-28T11:35:52;3.85;;;1.50;;
28437;SDS011;15667;52.376;9.708;2023-02-28T11:38:25;2.38;;;1.40;;
28437;SDS011;15667;52.376;9.708;2023-02-28T11:46:22;2.75;;;1.23;;
28437;SDS011;15667;52.376;9.708;2023-02-28T11:49:13;6.30;;;1.40;;
28437;SDS011;15667;52.376;9.708;2023-02-28T11:51:48;2.83;;;1.65;;
28437;SDS011;15667;52.376;9.708;2023-02-28T12:08:26;5.15;;;2.10;;
28437;SDS011;15667;52.376;9.708;2023-02-28T12:22:31;4.15;;;2.00;;
28437;SDS011;15667;52.376;9.708;2023-02-28T12:27:46;6.15;;;1.88;;
28437;SDS011;15667;52.376;9.708;2023-02-28T12:30:33;3.25;;;1.70;;
28437;SDS011;15667;52.376;9.708;2023-02-28T12:33:06;6.03;;;2.08;;
28437;SDS011;15667;52.376;9.708;2023-02-28T12:38:35;5.20;;;2.17;;
28437;SDS011;15667;52.376;9.708;2023-02-28T12:41:17;4.00;;;2.15;;
28437;SDS011;15667;52.376;9.708;2023-02-28T12:43:55;13.40;;;4.65;;
28437;SDS011;15667;52.376;9.708;2023-02-28T12:46:27;3.63;;;2.00;;
28437;SDS011;15667;52.376;9.708;2023-02-28T12:48:58;6.18;;;1.77;;
28437;SDS011;15667;52.376;9.708;2023-02-28T12:51:35;3.22;;;1.88;;
28437;SDS011;15667;52.376;9.708;2023-02-28T12:57:11;4.35;;;2.08;;
28437;SDS011;15667;52.376;9.708;2023-02-28T13:05:32;4.05;;;1.80;;
28437;SDS011;15667;52.376;9.708;2023-02-28T13:11:40;4.43;;;2.20;;
28437;SDS011;15667;52.376;9.708;2023-02-28T13:14:42;4.10;;;2.53;;
28437;SDS011;15667;52.376;9.708;2023-02-28T13:25:00;4.70;;;2.53;;
28437;SDS011;15667;52.376;9.708;2023-02-28T13:27:36;6.55;;;2.50;;
28437;SDS011;15667;52.376;9.708;2023-02-28T13:38:48;4.95;;;2.53;;
28437;SDS011;15667;52.376;9.708;2023-02-28T13:44:05;6.05;;;2.78;;
28437;SDS011;15667;52.376;9.708;2023-02-28T13:49:24;5.38;;;2.47;;
28437;SDS011;15667;52.376;9.708;2023-02-28T13:52:02;6.00;;;1.58;;
28437;SDS011;15667;52.376;9.708;2023-02-28T14:05:36;8.55;;;2.08;;
28437;SDS011;15667;52.376;9.708;2023-02-28T14:08:04;4.22;;;1.88;;
28437;SDS011;15667;52.376;9.708;2023-02-28T14:10:31;6.50;;;2.08;;
28437;SDS011;15667;52.376;9.708;2023-02-28T14:23:59;4.25;;;1.77;;
28437;SDS011;15667;52.376;9.708;2023-02-28T14:32:26;3.70;;;2.00;;
28437;SDS011;15667;52.376;9.708;2023-02-28T14:34:59;6.20;;;2.03;;
28437;SDS011;15667;52.376;9.708;2023-02-28T14:37:28;6.47;;;2.35;;
28437;SDS011;15667;52.376;9.708;2023-02-28T14:39:57;5.03;;;2.35;;
28437;SDS011;15667;52.376;9.708;2023-02-28T14:42:35;3.30;;;1.70;;
28437;SDS011;15667;52.376;9.708;2023-02-28T14:45:03;4.43;;;1.88;;
28437;SDS011;15667;52.376;9.708;2023-02-28T14:47:32;7.25;;;2.17;;
28437;SDS011;15667;52.376;9.708;2023-02-28T14:50:31;3.30;;;1.98;;
28437;SDS011;15667;52.376;9.708;2023-02-28T14:56:27;5.65;;;2.75;;
28437;SDS011;15667;52.376;9.708;2023-02-28T14:59:04;6.10;;;3.03;;
28437;SDS011;15667;52.376;9.708;2023-02-28T15:01:46;6.35;;;2.20;;
28437;SDS011;15667;52.376;9.708;2023-02-28T15:04:25;6.30;;;3.25;;
28437;SDS011;15667;52.376;9.708;2023-02-28T15:07:13;7.50;;;2.97;;
28437;SDS011;15667;52.376;9.708;2023-02-28T15:09:40;5.53;;;2.60;;
28437;SDS011;15667;52.376;9.708;2023-02-28T15:12:27;5.00;;;2.45;;
28437;SDS011;15667;52.376;9.708;2023-02-28T15:15:17;3.97;;;2.38;;
28437;SDS011;15667;52.376;9.708;2023-02-28T15:17:46;3.35;;;2.03;;
28437;SDS011;15667;52.376;9.708;2023-02-28T15:20:16;4.07;;;2.17;;
28437;SDS011;15667;52.376;9.708;2023-02-28T15:22:45;4.07;;;2.35;;
28437;SDS011;15667;52.376;9.708;2023-02-28T15:25:13;7.82;;;2.50;;
28437;SDS011;15667;52.376;9.708;2023-02-28T15:27:47;6.05;;;2.78;;
28437;SDS011;15667;52.376;9.708;2023-02-28T15:32:46;6.57;;;2.35;;
28437;SDS011;15667;52.376;9.708;2023-02-28T15:35:44;2.97;;;2.30;;
28437;SDS011;15667;52.376;9.708;2023-02-28T15:38:26;5.47;;;2.33;;
28437;SDS011;15667;52.376;9.708;2023-02-28T15:40:57;5.15;;;2.28;;
28437;SDS011;15667;52.376;9.708;2023-02-28T15:43:27;4.32;;;2.55;;
28437;SDS011;15667;52.376;9.708;2023-02-28T15:46:03;8.35;;;3.15;;
28437;SDS011;15667;52.376;9.708;2023-02-28T15:54:00;7.28;;;2.90;;
28437;SDS011;15667;52.376;9.708;2023-02-28T15:56:30;8.48;;;3.15;;
28437;SDS011;15667;52.376;9.708;2023-02-28T15:59:21;8.57;;;3.08;;
28437;SDS011;15667;52.376;9.708;2023-02-28T16:07:33;4.57;;;2.73;;
28437;SDS011;15667;52.376;9.708;2023-02-28T16:10:04;5.50;;;2.70;;
28437;SDS011;15667;52.376;9.708;2023-02-28T16:12:32;3.75;;;2.65;;
28437;SDS011;15667;52.376;9.708;2023-02-28T16:15:01;6.28;;;3.15;;
28437;SDS011;15667;52.376;9.708;2023-02-28T16:17:34;5.13;;;2.17;;
28437;SDS011;15667;52.376;9.708;2023-02-28T16:20:05;4.15;;;2.47;;
28437;SDS011;15667;52.376;9.708;2023-02-28T16:22:41;9.95;;;4.45;;
28437;SDS011;15667;52.376;9.708;2023-02-28T16:25:10;9.43;;;6.22;;
28437;SDS011;15667;52.376;9.708;2023-02-28T16:27:40;7.60;;;4.43;;
28437;SDS011;15667;52.376;9.708;2023-02-28T16:30:07;12.00;;;7.75;;
28437;SDS011;15667;52.376;9.708;2023-02-28T16:32:46;5.57;;;4.07;;
28437;SDS011;15667;52.376;9.708;2023-02-28T16:35:13;9.90;;;4.50;;
28437;SDS011;15667;52.376;9.708;2023-02-28T16:37:39;6.28;;;3.65;;
28437;SDS011;15667;52.376;9.708;2023-02-28T16:40:05;6.18;;;3.00;;
28437;SDS011;15667;52.376;9.708;2023-02-28T16:42:32;5.75;;;3.45;;
28437;SDS011;15667;52.376;9.708;2023-02-28T16:44:58;4.85;;;3.40;;
28437;SDS011;15667;52.376;9.708;2023-02-28T16:47:24;8.38;;;5.85;;
28437;SDS011;15667;52.376;9.708;2023-02-28T16:49:51;7.53;;;4.28;;
28437;SDS011;15667;52.376;9.708;2023-02-28T16:52:17;8.65;;;4.07;;
28437;SDS011;15667;52.376;9.708;2023-02-28T16:54:43;11.45;;;4.85;;
28437;SDS011;15667;52.376;9.708;2023-02-28T16:57:21;12.60;;;5.00;;
28437;SDS011;15667;52.376;9.708;2023-02-28T16:59:48;11.98;;;6.97;;
28437;SDS011;15667;52.376;9.708;2023-02-28T17:02:16;15.35;;;7.03;;
28437;SDS011;15667;52.376;9.708;2023-02-28T17:04:44;9.75;;;5.07;;
28437;SDS011;15667;52.376;9.708;2023-02-28T17:07:10;12.13;;;5.90;;
28437;SDS011;15667;52.376;9.708;2023-02-28T17:09:38;9.27;;;5.63;;
28437;SDS011;15667;52.376;9.708;2023-02-28T17:12:09;10.30;;;5.68;;
28437;SDS011;15667;52.376;9.708;2023-02-28T17:14:36;10.68;;;6.30;;
28437;SDS011;15667;52.376;9.708;2023-02-28T17:17:04;9.10;;;5.05;;
28437;SDS011;15667;52.376;9.708;2023-02-28T17:19:30;8.85;;;4.97;;
28437;SDS011;15667;52.376;9.708;2023-02-28T17:21:56;17.13;;;6.43;;
28437;SDS011;15667;52.376;9.708;2023-02-28T17:24:21;12.60;;;5.32;;
28437;SDS011;15667;52.376;9.708;2023-02-28T17:26:47;10.23;;;5.88;;
28437;SDS011;15667;52.376;9.708;2023-02-28T17:29:17;19.98;;;8.82;;
28437;SDS011;15667;52.376;9.708;2023-02-28T17:31:45;11.50;;;6.72;;
28437;SDS011;15667;52.376;9.708;2023-02-28T17:34:11;48.25;;;21.30;;
28437;SDS011;15667;52.376;9.708;2023-02-28T17:36:57;24.90;;;10.85;;
28437;SDS011;15667;52.376;9.708;2023-02-28T17:39:43;11.32;;;6.32;;
28437;SDS011;15667;52.376;9.708;2023-02-28T17:42:49;14.05;;;6.43;;
28437;SDS011;15667;52.376;9.708;2023-02-28T17:45:17;12.02;;;5.22;;
28437;SDS011;15667;52.376;9.708;2023-02-28T17:47:43;13.02;;;5.70;;
28437;SDS011;15667;52.376;9.708;2023-02-28T17:50:12;13.02;;;5.57;;
28437;SDS011;15667;52.376;9.708;2023-02-28T17:52:40;8.43;;;4.93;;
28437;SDS011;15667;52.376;9.708;2023-02-28T17:55:06;11.45;;;4.93;;
28437;SDS011;15667;52.376;9.708;2023-02-28T17:57:33;12.88;;;5.45;;
28437;SDS011;15667;52.376;9.708;2023-02-28T17:59:59;13.48;;;4.97;;
28437;SDS011;15667;52.376;9.708;2023-02-28T18:02:24;12.65;;;4.68;;
28437;SDS011;15667;52.376;9.708;2023-02-28T18:04:52;13.00;;;5.55;;
28437;SDS011;15667;52.376;9.708;2023-02-28T18:07:17;11.65;;;5.78;;
28437;SDS011;15667;52.376;9.708;2023-02-28T18:09:45;17.23;;;6.50;;
28437;SDS011;15667;52.376;9.708;2023-02-28T18:12:11;17.45;;;7.20;;
28437;SDS011;15667;52.376;9.708;2023-02-28T18:14:39;20.48;;;7.95;;
28437;SDS011;15667;52.376;9.708;2023-02-28T18:17:05;16.92;;;8.77;;